Flight Track Log - Related Links

Times and Time Zones

All times are in EDT time to prevent confusion due to time zone crossing. See the SWA3247 flight status page for this flight to view local times or setup timezone preferences in your user account.

Time Position Orientation Groundspeed Altitude Reporting Facility
EDT Latitude Longitude Course Direction KTS MPH feet Rate Location/Type
Tue 08:50:19 PM 36.0767 -115.1706 270° West 169 194 3,400  Level Los Angeles Center
Tue 08:51:07 PM 36.0764 -115.2186 270° West 196 226 4,400 2,019 Climbing Los Angeles Center
Tue 08:52:06 PM 36.0983 -115.2869 292° West 221 254 7,000 2,817 Climbing Los Angeles Center
Tue 08:53:02 PM 36.1656 -115.2719 10° North 277 319 9,800 2,195 Climbing Los Angeles Center
Tue 08:54:09 PM 36.1956 -115.1714 70° East 320 368 11,500 1,569 Climbing Los Angeles Center
Tue 08:55:12 PM 36.1986 -115.0500 88° East 341 392 13,200 2,112 Climbing Los Angeles Center
Tue 08:56:14 PM 36.2000 -114.8869 89° East 378 435 15,900 2,468 Climbing Los Angeles Center
Tue 08:57:16 PM 36.2019 -114.7478 89° East 393 452 18,300 2,274 Climbing Los Angeles Center
Tue 08:58:18 PM 36.2008 -114.6019 90° East 408 470 20,600 2,000 Climbing Los Angeles Center
Tue 08:59:19 PM 36.1989 -114.4517 91° East 423 487 22,400 1,707 Climbing Los Angeles Center
Tue 09:00:21 PM 36.1936 -114.2956 92° East 441 507 24,100 1,548 Climbing Los Angeles Center
Tue 09:01:23 PM 36.2047 -114.1344 85° East 466 536 25,600 1,500 Climbing Los Angeles Center
Tue 09:02:25 PM 36.2261 -113.9711 81° East 479 551 27,200 1,548 Climbing Los Angeles Center
Tue 09:03:27 PM 36.2492 -113.7686 82° East 492 566 28,800 1,597 Climbing Los Angeles Center
Tue 09:04:29 PM 36.2708 -113.5967 81° East 502 578 30,500 1,805 Climbing Los Angeles Center
Tue 09:05:30 PM 36.3256 -113.4386 67° East 500 575 32,500 1,756 Climbing Los Angeles Center
Tue 09:06:32 PM 36.3778 -113.2828 67° East 492 566 34,100 1,452 Climbing Los Angeles Center
Tue 09:07:34 PM 36.4294 -113.1322 67° East 490 564 35,500 1,403 Climbing Los Angeles Center
Tue 09:08:36 PM 36.4928 -112.9472 67° East 487 560 37,000 726 Climbing Los Angeles Center
Tue 09:09:38 PM 36.5439 -112.7950 67° East 483 556 37,000  Level Los Angeles Center
Tue 09:10:40 PM 36.5944 -112.6431 67° East 480 552 37,000  Level Los Angeles Center
Tue 09:11:42 PM 36.6458 -112.4908 67° East 481 554 37,000  Level Los Angeles Center
Tue 09:12:43 PM 36.6972 -112.3386 67° East 480 552 37,000  Level Los Angeles Center
Tue 09:13:45 PM 36.7481 -112.1869 67° East 479 551 37,000  Level Los Angeles Center
Tue 09:14:47 PM 36.8092 -112.0028 67° East 481 554 37,000  Level Los Angeles Center
Tue 09:15:49 PM 36.8597 -111.8472 68° East 484 557 37,000  Level Los Angeles Center
Tue 09:16:32 PM 36.8917 -111.7536 67° East 486 559 37,000  Level Denver Center
Tue 09:17:33 PM 36.9422 -111.5972 68° East 487 560 37,000  Level Denver Center
Tue 09:18:35 PM 37.0039 -111.4094 68° East 488 562 37,000  Level Denver Center
Tue 09:19:37 PM 37.0494 -111.2567 69° East 477 549 37,000  Level Denver Center
Tue 09:20:38 PM 37.0994 -111.1000 68° East 484 557 37,000  Level Denver Center
Tue 09:21:40 PM 37.1500 -110.9444 68° East 484 557 37,000  Level Denver Center
Tue 09:22:42 PM 37.1989 -110.7872 69° East 487 560 37,000  Level Denver Center
Tue 09:23:43 PM 37.2478 -110.6294 69° East 486 559 37,000  Level Denver Center
Tue 09:24:45 PM 37.2978 -110.4717 68° East 487 560 37,000  Level Denver Center
Tue 09:25:47 PM 37.3561 -110.2828 69° East 487 560 37,000  Level Denver Center
Tue 09:26:48 PM 37.4067 -110.1222 68° East 487 560 37,000  Level Denver Center
Tue 09:27:50 PM 37.4519 -109.9708 69° East 484 557 37,000  Level Denver Center
Tue 09:28:52 PM 37.5072 -109.7919 69° East 487 560 37,000  Level Denver Center
Tue 09:29:54 PM 37.5533 -109.6406 69° East 483 556 37,000  Level Denver Center
Tue 09:30:55 PM 37.5983 -109.4875 70° East 485 558 37,000  Level Denver Center
Tue 09:31:57 PM 37.6533 -109.3078 69° East 488 562 37,000  Level Denver Center
Tue 09:32:59 PM 37.6989 -109.1519 70° East 492 566 37,000  Level Denver Center
Tue 09:34:01 PM 37.7517 -108.9714 70° East 490 564 37,000  Level Denver Center
Tue 09:35:02 PM 37.7972 -108.8158 70° East 492 566 37,000  Level Denver Center
Tue 09:36:04 PM 37.8422 -108.6611 70° East 490 564 37,000  Level Denver Center
Tue 09:37:06 PM 37.8950 -108.4831 69° East 485 558 37,000  Level Denver Center
Tue 09:38:07 PM 37.9394 -108.3292 70° East 485 558 37,000  Level Denver Center
Tue 09:39:09 PM 37.9911 -108.1522 70° East 482 555 37,000  Level Denver Center
Tue 09:40:11 PM 38.0353 -107.9950 70° East 489 563 37,000  Level Denver Center
Tue 09:41:12 PM 38.0850 -107.8158 71° East 484 557 37,000  Level Denver Center
Tue 09:42:14 PM 38.1281 -107.6639 70° East 481 554 37,000  Level Denver Center
Tue 09:43:16 PM 38.1792 -107.4822 70° East 485 558 37,000  Level Denver Center
Tue 09:44:18 PM 38.2222 -107.3289 70° East 483 556 37,000  Level Denver Center
Tue 09:45:20 PM 38.2650 -107.1758 70° East 487 560 37,000  Level Denver Center
Tue 09:46:21 PM 38.3094 -107.0114 71° East 491 565 37,000  Level Denver Center
Tue 09:47:23 PM 38.3533 -106.8500 71° East 487 560 37,000  Level Denver Center
Tue 09:48:25 PM 38.4064 -106.6539 71° East 490 564 37,000  Level Denver Center
Tue 09:49:27 PM 38.4500 -106.4906 71° East 489 563 37,000  Level Denver Center
Tue 09:50:29 PM 38.4933 -106.3267 71° East 490 564 37,000  Level Denver Center
Tue 09:51:30 PM 38.5386 -106.1581 71° East 486 559 37,000  Level Denver Center
Tue 09:52:32 PM 38.5867 -105.9772 71° East 482 555 37,000  Level Denver Center
Tue 09:53:34 PM 38.6197 -105.8561 71° East 480 552 37,000  Level Denver Center
Tue 09:54:36 PM 38.6683 -105.6631 72° East 478 550 37,000  Level Denver Center
Tue 09:55:38 PM 38.7106 -105.5039 71° East 475 547 37,000  Level Denver Center
Tue 09:56:40 PM 38.7508 -105.3425 72° East 478 550 37,000  Level Denver Center
Tue 09:57:41 PM 38.8011 -105.1492 71° East 477 549 37,000  Level Denver Center
Tue 09:58:43 PM 38.8422 -104.9883 72° East 480 552 37,000  Level Denver Center
Tue 09:59:45 PM 38.8825 -104.8256 72° East 483 556 37,000  Level Denver Center
Tue 10:00:47 PM 38.9228 -104.6647 72° East 477 549 37,000  Level Denver Center
Tue 10:01:49 PM 38.9631 -104.5039 72° East 477 549 37,000  Level Denver Center
Tue 10:02:51 PM 39.0097 -104.3144 72° East 471 542 37,000  Level Denver Center
Tue 10:03:52 PM 39.0492 -104.1558 72° East 470 541 37,000  Level Denver Center
Tue 10:04:54 PM 39.0883 -103.9956 72° East 472 543 37,000  Level Denver Center
Tue 10:05:56 PM 39.1269 -103.8367 73° East 469 540 37,000  Level Denver Center
Tue 10:06:58 PM 39.1650 -103.6767 73° East 469 540 37,000  Level Denver Center
Tue 10:08:00 PM 39.2036 -103.5169 73° East 470 541 37,000  Level Denver Center
Tue 10:09:02 PM 39.2492 -103.3253 73° East 467 537 37,000  Level Denver Center
Tue 10:10:04 PM 39.2869 -103.1647 73° East 467 537 37,000  Level Denver Center
Tue 10:11:06 PM 39.3233 -103.0064 73° East 463 533 37,000  Level Denver Center
Tue 10:12:08 PM 39.3597 -102.8475 73° East 463 533 37,000  Level Denver Center
Tue 10:13:10 PM 39.3964 -102.6894 73° East 461 531 37,000  Level Denver Center
Tue 10:14:12 PM 39.4325 -102.5306 74° East 462 532 37,000  Level Denver Center
Tue 10:15:14 PM 39.4769 -102.3356 73° East 464 534 37,000  Level Denver Center
Tue 10:16:16 PM 39.5117 -102.1836 73° East 461 531 37,000  Level Denver Center
Tue 10:17:18 PM 39.5475 -102.0303 73° East 465 535 37,000  Level Denver Center
Tue 10:18:20 PM 39.5858 -101.8494 75° East 466 536 37,000  Level Denver Center
Tue 10:19:22 PM 39.6203 -101.6953 74° East 467 537 37,000  Level Denver Center
Tue 10:20:24 PM 39.6589 -101.5117 75° East 473 544 37,000  Level Denver Center
Tue 10:21:25 PM 39.6925 -101.3569 74° East 468 539 37,000  Level Denver Center
Tue 10:22:27 PM 39.7322 -101.1764 74° East 468 539 37,000  Level Denver Center
Tue 10:23:29 PM 39.7653 -101.0208 75° East 467 537 37,000  Level Denver Center
Tue 10:24:31 PM 39.8036 -100.8389 75° East 468 539 37,000  Level Denver Center
Tue 10:25:33 PM 39.8361 -100.6839 75° East 467 537 37,000  Level Denver Center
Tue 10:26:35 PM 39.8742 -100.5008 75° East 471 542 37,000  Level Denver Center
Tue 10:27:37 PM 39.9061 -100.3456 75° East 468 539 37,000  Level Denver Center
Tue 10:28:38 PM 39.9428 -100.1669 75° East 471 542 37,000  Level Denver Center
Tue 10:29:40 PM 39.9769 -100.0036 75° East 468 539 37,000  Level Denver Center
Tue 10:30:42 PM 40.0097 -99.8361 76° East 475 547 37,000  Level Denver Center
Tue 10:31:44 PM 40.0425 -99.6719 75° East 472 543 37,000  Level Denver Center
Tue 10:32:46 PM 40.0761 -99.5064 75° East 473 544 37,000  Level Denver Center
Tue 10:33:48 PM 40.1156 -99.3056 76° East 477 549 37,000  Level Denver Center
Tue 10:34:50 PM 40.1486 -99.1386 75° East 478 550 37,000  Level Denver Center
Tue 10:36:19 PM 40.1928 -98.9044 76° East 480 552 37,000  Level Minneapolis Center
Tue 10:37:21 PM 40.2264 -98.7353 75° East 482 555 37,000  Level Minneapolis Center
Tue 10:38:22 PM 40.2583 -98.5639 76° East 486 559 37,000  Level Minneapolis Center
Tue 10:39:24 PM 40.2967 -98.3592 76° East 486 559 37,000  Level Minneapolis Center
Tue 10:40:25 PM 40.3283 -98.1883 76° East 485 558 37,000  Level Minneapolis Center
Tue 10:41:27 PM 40.3592 -98.0172 77° East 485 558 37,000  Level Minneapolis Center
Tue 10:42:28 PM 40.3903 -97.8444 77° East 487 560 37,000  Level Minneapolis Center
Tue 10:43:30 PM 40.4225 -97.6728 76° East 487 560 37,000  Level Minneapolis Center
Tue 10:44:31 PM 40.4525 -97.5019 77° East 484 557 37,000 537 Level Minneapolis Center
Tue 10:45:33 PM 40.4869 -97.3103 77° East 485 558 38,100 976 Climbing Minneapolis Center
Tue 10:46:34 PM 40.5164 -97.1403 77° East 482 555 39,000 439 Climbing Minneapolis Center
Tue 10:47:36 PM 40.5461 -96.9711 77° East 477 549 39,000  Level Minneapolis Center
Tue 10:48:37 PM 40.5750 -96.8008 77° East 478 550 39,000  Level Minneapolis Center
Tue 10:49:39 PM 40.6042 -96.6331 77° East 473 544 39,000  Level Minneapolis Center
Tue 10:50:40 PM 40.6328 -96.4633 77° East 476 548 39,000  Level Minneapolis Center
Tue 10:51:42 PM 40.6675 -96.2600 77° East 478 550 39,000  Level Minneapolis Center
Tue 10:52:43 PM 40.6953 -96.0900 78° East 477 549 39,000  Level Minneapolis Center
Tue 10:53:45 PM 40.7219 -95.9206 78° East 477 549 39,000  Level Minneapolis Center
Tue 10:54:46 PM 40.7511 -95.7517 77° East 476 548 39,000  Level Minneapolis Center
Tue 10:55:48 PM 40.7778 -95.5803 78° East 480 552 39,000  Level Minneapolis Center
Tue 10:56:49 PM 40.8050 -95.4072 78° East 484 557 39,000  Level Minneapolis Center
Tue 10:57:51 PM 40.8339 -95.2344 77° East 484 557 39,000  Level Minneapolis Center
Tue 10:58:52 PM 40.8656 -95.0269 79° East 483 556 39,000  Level Minneapolis Center
Tue 10:59:54 PM 40.8928 -94.8519 78° East 486 559 39,000  Level Minneapolis Center
Tue 11:00:55 PM 40.9192 -94.6772 79° East 486 559 39,000  Level Minneapolis Center
Tue 11:01:57 PM 40.9475 -94.4967 78° East 486 559 39,000  Level Minneapolis Center
Tue 11:02:58 PM 40.9728 -94.3219 79° East 487 560 39,000  Level Minneapolis Center
Tue 11:04:00 PM 40.9983 -94.1464 79° East 489 563 39,000  Level Minneapolis Center
Tue 11:05:01 PM 41.0236 -93.9697 79° East 491 565 39,000  Level Minneapolis Center
Tue 11:06:03 PM 41.0492 -93.7914 79° East 495 570 39,000  Level Minneapolis Center
Tue 11:07:04 PM 41.0758 -93.6156 79° East 492 566 39,000  Level Minneapolis Center
Tue 11:08:06 PM 41.1044 -93.4072 80° East 484 557 39,000  Level Minneapolis Center
Tue 11:09:07 PM 41.1300 -93.2314 79° East 485 558 39,000  Level Minneapolis Center
Tue 11:10:09 PM 41.1536 -93.0553 80° East 486 559 39,000  Level Minneapolis Center
Tue 11:11:10 PM 41.1783 -92.8797 79° East 486 559 39,000  Level Minneapolis Center
Tue 11:12:11 PM 41.2019 -92.7019 80° East 489 563 39,000  Level Minneapolis Center
Tue 11:13:13 PM 41.2258 -92.5253 80° East 489 563 39,000  Level Minneapolis Center
Tue 11:14:14 PM 41.2494 -92.3489 80° East 487 560 39,000  Level Minneapolis Center
Tue 11:15:16 PM 41.2761 -92.1353 81° East 489 563 39,000  Level Minneapolis Center
Tue 11:16:18 PM 41.2983 -91.9581 80° East 489 563 39,000  Level Minneapolis Center
Tue 11:17:19 PM 41.3161 -91.8175 80° East 487 560 39,000  Level Minneapolis Center
Tue 11:18:33 PM 41.3456 -91.5850 80° East 481 554 39,000  Level Chicago Center
Tue 11:19:35 PM 41.3697 -91.3797 81° East 476 548 39,000  Level Chicago Center
Tue 11:20:36 PM 41.3903 -91.2208 80° East 475 547 39,000  Level Chicago Center
Tue 11:21:38 PM 41.4100 -91.0494 81° East 470 541 39,000  Level Chicago Center
Tue 11:22:39 PM 41.4300 -90.8800 81° East 465 535 39,000  Level Chicago Center
Tue 11:23:41 PM 41.4497 -90.7083 81° East 467 537 39,000  Level Chicago Center
Tue 11:24:42 PM 41.4692 -90.5378 81° East 465 535 39,000  Level Chicago Center
Tue 11:25:44 PM 41.4933 -90.3306 81° East 469 540 39,000  Level Chicago Center
Tue 11:26:45 PM 41.5122 -90.1564 82° East 472 543 39,000  Level Chicago Center
Tue 11:27:47 PM 41.5317 -89.9822 81° East 473 544 39,000  Level Chicago Center
Tue 11:28:48 PM 41.5506 -89.8081 82° East 474 545 39,000  Level Chicago Center
Tue 11:29:49 PM 41.5697 -89.6319 82° East 478 550 39,000  Level Chicago Center
Tue 11:30:51 PM 41.5883 -89.4539 82° East 478 550 39,000  Level Chicago Center
Tue 11:31:52 PM 41.6022 -89.2819 84° East 472 543 39,000  Level Chicago Center
Tue 11:32:54 PM 41.6214 -89.1058 82° East 477 549 39,000  Level Chicago Center
Tue 11:33:55 PM 41.6400 -88.9267 82° East 485 558 39,000  Level Chicago Center
Tue 11:34:56 PM 41.6578 -88.7456 82° East 492 566 39,000  Level Chicago Center
Tue 11:35:58 PM 41.6789 -88.5317 82° East 484 557 39,000  Level Chicago Center
Tue 11:36:59 PM 41.6964 -88.3503 83° East 488 562 39,000  Level Chicago Center
Tue 11:38:00 PM 41.7133 -88.1700 83° East 486 559 39,000  Level Chicago Center
Tue 11:39:01 PM 41.7292 -87.9881 83° East 487 560 39,000  Level Chicago Center
Tue 11:40:03 PM 41.7464 -87.8072 83° East 488 562 39,000  Level Chicago Center
Tue 11:41:04 PM 41.7611 -87.6278 84° East 487 560 39,000  Level Chicago Center
Tue 11:42:05 PM 41.7767 -87.4500 83° East 482 555 39,000  Level Chicago Center
Tue 11:43:06 PM 41.7928 -87.2747 83° East 479 551 39,000  Level Chicago Center
Tue 11:44:08 PM 41.8067 -87.0972 84° East 480 552 39,000  Level Chicago Center
Tue 11:45:09 PM 41.8219 -86.9217 83° East 478 550 39,000  Level Chicago Center
Tue 11:46:10 PM 41.8383 -86.7106 84° East 477 549 39,000  Level Chicago Center
Tue 11:47:11 PM 41.8511 -86.5450 84° East 481 554 39,000  Level Chicago Center
Tue 11:48:12 PM 41.8644 -86.3656 84° East 484 557 39,000  Level Chicago Center
Tue 11:49:14 PM 41.8781 -86.1875 84° East 483 556 39,000  Level Chicago Center
Tue 11:50:15 PM 41.8917 -86.0075 84° East 483 556 39,000  Level Chicago Center
Tue 11:51:16 PM 41.9056 -85.8272 84° East 484 557 39,000  Level Chicago Center
Tue 11:52:17 PM 41.9189 -85.6456 84° East 486 559 39,000  Level Chicago Center
Tue 11:53:18 PM 41.9308 -85.4631 85° East 487 560 39,000  Level Chicago Center
Tue 11:54:19 PM 41.9450 -85.2825 84° East 482 555 39,000  Level Chicago Center
Tue 11:55:21 PM 41.9564 -85.1056 85° East 474 545 39,000  Level Chicago Center
Tue 11:56:22 PM 41.9661 -84.9264 86° East 479 551 39,000  Level Chicago Center
Tue 11:57:23 PM 41.9783 -84.7336 85° East 491 565 39,000  Level Chicago Center
Tue 11:58:24 PM 41.9903 -84.5553 85° East 484 557 39,000  Level Chicago Center
Tue 11:59:25 PM 41.9997 -84.3750 86° East 484 557 39,000  Level Chicago Center
Tue 11:59:59 PM 42.0053 -84.2608 86° East 475 547 39,000  Level Cleveland Center
Wed 12:00:59 AM 42.0128 -84.0822 87° East 475 547 39,000  Level Cleveland Center
Wed 12:01:59 AM 42.0244 -83.9011 85° East 475 547 39,000  Level Cleveland Center
Wed 12:02:59 AM 42.0339 -83.7172 86° East 475 547 39,000  Level Cleveland Center
Wed 12:03:59 AM 42.0475 -83.5136 85° East 486 559 39,000  Level Cleveland Center
Wed 12:04:59 AM 42.0561 -83.3350 86° East 491 565 39,000  Level Cleveland Center
Wed 12:05:59 AM 42.0600 -83.1675 88° East 491 565 39,000  Level Cleveland Center
Wed 12:06:59 AM 42.0703 -82.9861 86° East 491 565 39,000  Level Cleveland Center
Wed 12:07:59 AM 42.0781 -82.8072 87° East 486 559 39,000  Level Cleveland Center
Wed 12:08:59 AM 42.0836 -82.6256 88° East 486 559 39,000  Level Cleveland Center
Wed 12:09:59 AM 42.0928 -82.4411 86° East 480 552 39,000  Level Cleveland Center
Wed 12:10:59 AM 42.0997 -82.2650 87° East 475 547 39,000  Level Cleveland Center
Wed 12:11:59 AM 42.1106 -82.0861 85° East 475 547 39,000  Level Cleveland Center
Wed 12:12:59 AM 42.1192 -81.9044 86° East 475 547 39,000  Level Cleveland Center
Wed 12:13:59 AM 42.1275 -81.7031 87° East 481 554 39,000  Level Cleveland Center
Wed 12:14:59 AM 42.1311 -81.5211 88° East 481 554 39,000  Level Cleveland Center
Wed 12:15:59 AM 42.1389 -81.3364 87° East 489 563 39,000  Level Cleveland Center
Wed 12:16:59 AM 42.1442 -81.1489 88° East 494 568 39,000  Level Cleveland Center
Wed 12:17:59 AM 42.1511 -80.9697 87° East 494 568 39,000  Level Cleveland Center
Wed 12:18:59 AM 42.1558 -80.7847 88° East 489 563 39,000  Level Cleveland Center
Wed 12:19:59 AM 42.1725 -80.5972 83° East 495 570 39,000  Level Cleveland Center
Wed 12:20:59 AM 42.1911 -80.4347 81° East 495 570 39,000  Level Cleveland Center
Wed 12:21:59 AM 42.2117 -80.2525 81° East 500 575 39,000  Level Cleveland Center
Wed 12:22:59 AM 42.2319 -80.0644 82° East 500 575 39,000  Level Cleveland Center
Wed 12:23:59 AM 42.2517 -79.8903 81° East 495 570 39,000  Level Cleveland Center
Wed 12:24:59 AM 42.2733 -79.7050 81° East 495 570 39,000  Level Cleveland Center
Wed 12:25:59 AM 42.2928 -79.5222 82° East 490 564 39,000  Level Cleveland Center
Wed 12:26:59 AM 42.3117 -79.3336 82° East 490 564 39,000  Level Cleveland Center
Wed 12:27:59 AM 42.3306 -79.1508 82° East 490 564 39,000  Level Cleveland Center
Wed 12:28:59 AM 42.3508 -78.9619 82° East 490 564 39,000  Level Cleveland Center
Wed 12:29:59 AM 42.3689 -78.7789 82° East 495 570 39,000  Level Cleveland Center
Wed 12:30:59 AM 42.3869 -78.5958 82° East 495 570 39,000  Level Cleveland Center
Wed 12:31:59 AM 42.4044 -78.4094 83° East 495 570 39,000  Level Cleveland Center
Wed 12:32:59 AM 42.4214 -78.2233 83° East 495 570 39,000  Level Cleveland Center
Wed 12:33:59 AM 42.4364 -78.0428 84° East 495 570 39,000 -250 Level Cleveland Center
Wed 12:34:59 AM 42.4531 -77.8561 83° East 495 570 38,500 -750 Descending Cleveland Center
Wed 12:35:59 AM 42.4736 -77.6753 81° East 490 564 37,500 -1,000 Descending Cleveland Center
Wed 12:36:59 AM 42.4875 -77.4886 84° East 490 564 36,500 -900 Descending Cleveland Center
Wed 12:37:59 AM 42.5031 -77.2992 84° East 495 570 35,700 -930 Descending Cleveland Center
Wed 12:40:19 AM 42.5394 -76.8592 83° East 495 570 33,400 -990 Descending Boston Center
Wed 12:41:19 AM 42.5550 -76.6686 84° East 501 577 32,400 -1,000 Descending Boston Center
Wed 12:42:19 AM 42.5703 -76.4778 84° East 501 577 31,400 -1,000 Descending Boston Center
Wed 12:43:19 AM 42.5853 -76.2869 84° East 501 577 30,400 -1,050 Descending Boston Center
Wed 12:44:19 AM 42.6025 -76.0819 83° East 501 577 29,300 -1,050 Descending Boston Center
Wed 12:45:19 AM 42.6147 -75.8964 85° East 496 571 28,300 -1,400 Descending Boston Center
Wed 12:46:19 AM 42.6283 -75.7194 84° East 491 565 26,500 -1,900 Descending Boston Center
Wed 12:47:19 AM 42.6408 -75.5619 84° East 475 547 24,500 -1,950 Descending Boston Center
Wed 12:48:19 AM 42.6517 -75.3931 85° East 459 528 22,600 -2,050 Descending Boston Center
Wed 12:49:19 AM 42.6600 -75.2297 86° East 439 505 20,400 -2,250 Descending Boston Center
Wed 12:50:19 AM 42.6719 -75.0750 84° East 427 491 18,100 -2,200 Descending Boston Center
Wed 12:51:19 AM 42.6797 -74.9228 86° East 411 473 16,000 -2,100 Descending Boston Center
Wed 12:52:19 AM 42.6892 -74.7706 85° East 398 458 13,900 -2,242 Descending Boston Center
Wed 12:52:58 AM 42.6956 -74.6578 86° East 384 442 12,300 -1,450 Descending Boston Center
Wed 12:54:19 AM 42.7069 -74.4942 85° East 364 419 11,000 -940 Descending Boston Center
Wed 12:55:12 AM 42.7194 -74.3817 81° East 323 372 10,200 -1,274 Descending Boston Center
Wed 12:56:12 AM 42.7547 -74.2583 69° East 312 359 8,600 -1,686 Descending Boston Center
Wed 12:57:13 AM 42.7856 -74.1517 68° East 305 351 6,800 -1,686 Descending Boston Center
Wed 12:58:13 AM 42.8164 -74.0506 67° East 287 330 5,200 -1,339 Descending Boston Center
Wed 12:59:14 AM 42.8447 -73.9550 68° East 272 313 4,100 -1,426 Descending Boston Center
Wed 01:00:15 AM 42.8519 -73.8675 84° East 220 253 2,300 -1,240 Descending Boston Center
Wed 01:01:15 AM 42.8256 -73.8103 122° Southeast 163 188 1,600 -744 Descending Boston Center
Wed 01:02:16 AM 42.7839 -73.8064 176° South 136 157 800 -787 Descending Boston Center

Login

Don't have an account? Register now (free) for customized features, flight alerts, and more!